createdAt,value
2019-05-03T00:02:26.063Z,64.53
2019-05-03T00:05:22.751Z,64.58
2019-05-03T00:07:59.533Z,64.59
2019-05-03T00:10:32.445Z,64.67
2019-05-03T00:13:06.550Z,64.71
2019-05-03T00:16:17.051Z,64.73
2019-05-03T00:18:50.437Z,64.86
2019-05-03T00:21:24.042Z,64.84
2019-05-03T00:23:59.968Z,64.88
2019-05-03T00:26:32.980Z,65.12
2019-05-03T00:29:06.011Z,65.10
2019-05-03T00:31:39.150Z,65.55
2019-05-03T00:34:15.773Z,67.01
2019-05-03T00:36:52.899Z,67.96
2019-05-03T00:39:32.514Z,69.06
2019-05-03T00:42:05.929Z,69.35
2019-05-03T00:44:39.072Z,69.64
2019-05-03T00:47:12.586Z,69.63
2019-05-03T00:49:45.657Z,69.94
2019-05-03T00:52:18.717Z,71.11
2019-05-03T00:54:52.873Z,70.99
2019-05-03T00:57:27.433Z,70.34
2019-05-03T01:00:02.313Z,69.99
2019-05-03T01:02:37.266Z,69.31
2019-05-03T01:05:11.933Z,69.76
2019-05-03T01:07:46.090Z,69.11
2019-05-03T01:10:19.418Z,68.90
2019-05-03T01:12:52.550Z,69.07
2019-05-03T01:15:35.102Z,68.82
2019-05-03T01:18:12.227Z,67.57
2019-05-03T01:20:44.690Z,67.42
2019-05-03T01:23:17.567Z,68.83
2019-05-03T01:25:51.670Z,69.07
2019-05-03T01:28:24.655Z,69.31
2019-05-03T01:30:57.499Z,69.88
2019-05-03T01:33:32.173Z,70.81
2019-05-03T01:36:05.338Z,71.07
2019-05-03T01:38:38.244Z,71.24
2019-05-03T01:41:12.298Z,68.94
2019-05-03T01:43:45.227Z,68.72
2019-05-03T01:46:18.078Z,68.12
2019-05-03T01:48:57.653Z,67.27
2019-05-03T01:51:48.205Z,67.28
2019-05-03T01:54:22.881Z,67.69
2019-05-03T01:56:59.023Z,67.32
2019-05-03T01:59:32.028Z,67.47
2019-05-03T02:02:24.026Z,67.75
2019-05-03T02:05:25.926Z,67.87
2019-05-03T02:07:59.044Z,68.21
2019-05-03T02:10:32.268Z,68.47
2019-05-03T02:13:05.647Z,68.80
2019-05-03T02:15:38.562Z,69.20
2019-05-03T02:18:14.965Z,68.76
2019-05-03T02:20:46.189Z,69.11
2019-05-03T02:23:20.146Z,69.37
2019-05-03T02:25:56.754Z,69.40
2019-05-03T02:28:27.577Z,69.40
2019-05-03T02:31:03.252Z,69.79
2019-05-03T02:33:35.307Z,69.68
2019-05-03T02:36:08.253Z,70.01
2019-05-03T02:38:42.925Z,70.19
2019-05-03T02:41:15.667Z,71.11
2019-05-03T02:43:50.822Z,71.19
2019-05-03T02:46:40.685Z,70.44
2019-05-03T02:49:20.195Z,70.21
2019-05-03T02:51:55.217Z,69.15
2019-05-03T02:54:27.594Z,68.35
2019-05-03T02:57:00.558Z,67.20
2019-05-03T02:59:34.703Z,67.15
2019-05-03T03:02:07.826Z,65.22
2019-05-03T03:04:40.960Z,64.20
2019-05-03T03:07:15.159Z,63.77
2019-05-03T03:09:49.230Z,63.50
2019-05-03T03:12:26.191Z,63.01
2019-05-03T03:15:00.748Z,62.36
2019-05-03T03:17:37.183Z,63.16
2019-05-03T03:20:10.952Z,62.39
2019-05-03T03:22:45.864Z,63.42
2019-05-03T03:25:25.744Z,63.24
2019-05-03T03:28:05.353Z,62.67
2019-05-03T03:31:22.671Z,61.91
2019-05-03T03:33:59.743Z,61.66
2019-05-03T03:36:50.680Z,61.79
2019-05-03T03:39:10.581Z,62.17
2019-05-03T03:41:45.302Z,61.49
2019-05-03T03:44:20.540Z,61.12
2019-05-03T03:46:56.225Z,61.25
2019-05-03T03:49:29.740Z,61.80
2019-05-03T03:52:05.835Z,61.29
2019-05-03T03:54:40.066Z,61.73
2019-05-03T03:57:17.838Z,61.46
2019-05-03T03:59:51.463Z,61.13
2019-05-03T04:02:26.393Z,60.84
2019-05-03T04:04:59.883Z,61.32
2019-05-03T04:07:36.121Z,61.35
2019-05-03T04:10:09.371Z,61.35
2019-05-03T04:12:45.454Z,61.20
2019-05-03T04:15:45.281Z,61.67
2019-05-03T04:18:33.379Z,62.48
2019-05-03T04:21:06.708Z,62.00
2019-05-03T04:23:40.430Z,62.13
2019-05-03T04:26:16.296Z,62.62
2019-05-03T04:28:50.189Z,62.24
2019-05-03T04:31:25.917Z,62.74
2019-05-03T04:33:57.769Z,62.01
2019-05-03T04:36:30.655Z,62.24
2019-05-03T04:39:05.373Z,62.35
2019-05-03T04:41:38.374Z,62.86
2019-05-03T04:44:11.268Z,62.21
2019-05-03T04:46:46.469Z,62.98
2019-05-03T04:49:19.978Z,63.18
2019-05-03T04:51:56.046Z,62.51
2019-05-03T04:54:47.503Z,63.75
2019-05-03T04:57:34.892Z,63.18
2019-05-03T04:59:56.064Z,63.97
2019-05-03T05:02:29.281Z,64.07
2019-05-03T05:05:02.220Z,63.42
2019-05-03T05:07:35.242Z,63.82
2019-05-03T05:10:08.328Z,62.40
2019-05-03T05:12:41.159Z,62.83
2019-05-03T05:15:15.628Z,63.61
2019-05-03T05:18:06.390Z,62.72
2019-05-03T05:20:49.989Z,63.10
2019-05-03T05:23:24.960Z,62.63
2019-05-03T05:26:15.511Z,62.04
2019-05-03T05:28:55.784Z,61.29
2019-05-03T05:31:28.621Z,61.80
2019-05-03T05:34:01.762Z,61.06
2019-05-03T05:36:35.055Z,61.40
2019-05-03T05:39:09.513Z,60.77
2019-05-03T05:41:45.015Z,60.81
2019-05-03T05:44:18.126Z,60.38
2019-05-03T05:47:16.214Z,60.41
2019-05-03T05:50:07.760Z,57.71
2019-05-03T05:52:41.072Z,53.78
2019-05-03T05:55:26.011Z,53.00
2019-05-03T05:58:08.349Z,51.24
2019-05-03T06:00:47.231Z,50.95
2019-05-03T06:03:20.337Z,51.37
2019-05-03T06:05:54.916Z,52.06
2019-05-03T06:08:40.357Z,52.70
2019-05-03T06:11:19.091Z,52.90
2019-05-03T06:14:02.079Z,52.86
2019-05-03T06:16:40.410Z,53.15
2019-05-03T06:19:26.468Z,52.31
2019-05-03T06:22:09.507Z,51.27
2019-05-03T06:24:47.902Z,51.42
2019-05-03T06:27:27.302Z,50.86
2019-05-03T06:30:05.319Z,50.67
2019-05-03T06:32:40.120Z,50.58
2019-05-03T06:35:15.211Z,50.57
2019-05-03T06:37:48.248Z,50.92
2019-05-03T06:40:21.126Z,50.20
2019-05-03T06:43:02.905Z,49.74
2019-05-03T06:45:28.998Z,48.27
2019-05-03T06:48:02.196Z,46.70
2019-05-03T06:50:35.157Z,46.64
2019-05-03T06:53:12.799Z,46.73
2019-05-03T06:55:45.580Z,46.98
2019-05-03T06:58:30.392Z,46.50
2019-05-03T07:01:11.360Z,46.36
2019-05-03T07:03:52.316Z,49.80
2019-05-03T07:06:41.976Z,44.38
2019-05-03T07:09:24.944Z,43.79
2019-05-03T07:11:57.658Z,44.51
2019-05-03T07:14:30.487Z,43.79
2019-05-03T07:17:14.579Z,41.95
2019-05-03T07:19:55.635Z,42.08
2019-05-03T07:22:45.597Z,41.46
2019-05-03T07:25:18.557Z,41.07
2019-05-03T07:27:55.555Z,41.22
2019-05-03T07:30:28.429Z,41.95
2019-05-03T07:33:05.192Z,40.59
2019-05-03T07:35:38.223Z,41.26
2019-05-03T07:38:11.169Z,40.10
2019-05-03T07:40:44.561Z,39.25
2019-05-03T07:43:18.956Z,38.37
2019-05-03T07:45:51.862Z,38.69
2019-05-03T07:48:25.428Z,38.09
2019-05-03T07:50:58.765Z,38.20
2019-05-03T07:53:31.772Z,38.05
2019-05-03T07:56:12.544Z,37.80
2019-05-03T07:59:02.766Z,37.90
2019-05-03T08:01:35.737Z,38.73
2019-05-03T08:04:08.765Z,38.78
2019-05-03T08:06:41.677Z,38.37
2019-05-03T08:09:15.309Z,37.58
2019-05-03T08:11:48.346Z,38.34
2019-05-03T08:14:21.203Z,37.76
2019-05-03T08:16:54.806Z,36.89
2019-05-03T08:19:27.780Z,36.23
2019-05-03T08:22:01.636Z,33.04
2019-05-03T08:24:34.797Z,33.53
2019-05-03T08:27:10.329Z,33.49
2019-05-03T08:29:45.284Z,34.52
2019-05-03T08:32:32.213Z,32.91
2019-05-03T08:35:21.840Z,30.95
2019-05-03T08:37:56.896Z,31.40
2019-05-03T08:40:35.007Z,31.50
2019-05-03T08:43:08.311Z,30.92
2019-05-03T08:45:42.198Z,32.50
2019-05-03T08:48:17.576Z,32.49
2019-05-03T08:50:52.382Z,31.43
2019-05-03T08:53:25.813Z,31.50
2019-05-03T08:55:58.819Z,32.42
2019-05-03T08:58:32.082Z,33.09
2019-05-03T09:01:14.998Z,32.43
2019-05-03T09:03:50.673Z,32.68
2019-05-03T09:06:38.714Z,32.42
2019-05-03T09:09:47.029Z,32.69
2019-05-03T09:12:25.194Z,33.52
2019-05-03T09:15:01.732Z,33.20
2019-05-03T09:17:36.345Z,34.99
2019-05-03T09:20:10.381Z,35.98
2019-05-03T09:22:45.314Z,35.03
2019-05-03T09:25:24.783Z,33.13
2019-05-03T09:27:55.197Z,34.64
2019-05-03T09:30:28.976Z,34.25
2019-05-03T09:33:05.185Z,33.01
2019-05-03T09:35:37.736Z,32.46
2019-05-03T09:38:10.731Z,31.63
2019-05-03T09:40:45.411Z,32.28
2019-05-03T09:43:18.328Z,33.09
2019-05-03T09:45:51.280Z,33.21
2019-05-03T09:48:25.506Z,33.31
2019-05-03T09:50:58.594Z,33.90
2019-05-03T09:53:35.474Z,33.04
2019-05-03T09:56:08.278Z,33.07
2019-05-03T09:58:41.314Z,32.09
2019-05-03T10:01:15.048Z,29.98
2019-05-03T10:03:48.212Z,29.13
2019-05-03T10:06:21.152Z,29.40
2019-05-03T10:08:54.049Z,29.44
2019-05-03T10:11:26.982Z,29.12
2019-05-03T10:13:59.916Z,29.46
2019-05-03T10:16:36.131Z,29.30
2019-05-03T10:19:09.030Z,30.91
2019-05-03T10:21:44.907Z,30.96
2019-05-03T10:24:17.843Z,29.96
2019-05-03T10:26:50.640Z,29.93
2019-05-03T10:29:25.117Z,30.13
2019-05-03T10:32:05.712Z,30.40
2019-05-03T10:34:38.761Z,29.75
2019-05-03T10:37:30.269Z,28.82
2019-05-03T10:40:07.718Z,28.49
2019-05-03T10:42:39.795Z,29.14
2019-05-03T10:45:12.801Z,30.00
2019-05-03T10:47:45.784Z,30.32
2019-05-03T10:50:19.057Z,31.17
2019-05-03T10:53:06.726Z,30.79
2019-05-03T10:55:41.668Z,30.95
2019-05-03T10:58:19.385Z,31.26
2019-05-03T11:00:56.717Z,31.54
2019-05-03T11:03:29.928Z,31.22
2019-05-03T11:06:05.390Z,29.89
2019-05-03T11:08:39.049Z,28.50
2019-05-03T11:11:12.222Z,27.97
2019-05-03T11:13:45.600Z,27.59
2019-05-03T11:16:19.401Z,27.16
2019-05-03T11:18:54.858Z,26.34
2019-05-03T11:21:31.186Z,25.61
2019-05-03T11:24:03.862Z,25.19
2019-05-03T11:26:37.348Z,24.60
2019-05-03T11:29:10.740Z,24.90
2019-05-03T11:32:09.458Z,25.94
2019-05-03T11:35:04.582Z,27.11
2019-05-03T11:37:51.376Z,28.37
2019-05-03T11:40:25.165Z,29.50
2019-05-03T11:43:00.270Z,29.55
2019-05-03T11:45:35.432Z,30.33
2019-05-03T11:48:08.546Z,30.58
2019-05-03T11:50:41.540Z,31.29
2019-05-03T11:53:14.698Z,31.56
2019-05-03T11:55:47.697Z,31.48
2019-05-03T11:58:22.550Z,31.04
2019-05-03T12:01:15.750Z,30.51
2019-05-03T12:03:47.844Z,30.20
2019-05-03T12:06:20.794Z,30.19
2019-05-03T12:08:55.427Z,30.37
2019-05-03T12:11:30.291Z,30.45
2019-05-03T12:14:15.180Z,29.54
2019-05-03T12:17:19.135Z,29.54
2019-05-03T12:19:47.452Z,28.70
2019-05-03T12:22:19.794Z,28.31
2019-05-03T12:24:53.740Z,27.18
2019-05-03T12:27:27.106Z,25.72
2019-05-03T12:30:00.036Z,24.61
2019-05-03T12:32:34.518Z,25.87
2019-05-03T12:35:07.794Z,25.93
2019-05-03T12:37:40.839Z,26.19
2019-05-03T12:40:14.968Z,26.26
2019-05-03T12:42:48.125Z,26.70
2019-05-03T12:45:22.268Z,27.77
2019-05-03T12:47:55.923Z,28.33
2019-05-03T12:50:29.193Z,28.18
2019-05-03T12:53:02.123Z,28.01
2019-05-03T12:55:35.697Z,28.29
2019-05-03T12:58:09.151Z,28.10
2019-05-03T13:00:59.814Z,27.92
2019-05-03T13:03:39.076Z,27.75
2019-05-03T13:06:12.088Z,28.44
2019-05-03T13:08:46.024Z,27.30
2019-05-03T13:11:18.965Z,27.30
2019-05-03T13:13:52.156Z,27.46
2019-05-03T13:16:25.238Z,27.63
2019-05-03T13:18:58.244Z,27.18
2019-05-03T13:21:31.205Z,27.65
2019-05-03T13:24:05.486Z,27.89
2019-05-03T13:26:38.638Z,27.12
2019-05-03T13:29:11.671Z,28.07
2019-05-03T13:31:55.797Z,27.49
2019-05-03T13:34:19.221Z,28.12
2019-05-03T13:36:52.153Z,28.01
2019-05-03T13:39:26.510Z,27.59
2019-05-03T13:41:59.646Z,27.79
2019-05-03T13:44:32.637Z,28.21
2019-05-03T13:47:05.550Z,28.12
2019-05-03T13:49:38.455Z,28.07
2019-05-03T13:52:11.268Z,27.27
2019-05-03T13:54:45.992Z,27.02
2019-05-03T13:57:18.830Z,27.77
2019-05-03T13:59:51.757Z,28.45
2019-05-03T14:02:24.633Z,27.45
2019-05-03T14:04:59.689Z,27.61
2019-05-03T14:07:32.565Z,26.37
2019-05-03T14:10:05.821Z,26.38
2019-05-03T14:12:38.606Z,26.62
2019-05-03T14:15:11.829Z,26.36
2019-05-03T14:17:44.720Z,26.50
2019-05-03T14:20:26.220Z,25.73
2019-05-03T14:22:58.966Z,26.13
2019-05-03T14:25:31.827Z,26.04
2019-05-03T14:28:05.433Z,26.64
2019-05-03T14:30:38.465Z,26.96
2019-05-03T14:33:11.321Z,27.17
2019-05-03T14:35:45.233Z,26.28
2019-05-03T14:38:18.411Z,26.67
2019-05-03T14:40:51.170Z,26.48
2019-05-03T14:43:24.935Z,26.97
2019-05-03T14:45:57.827Z,26.07
2019-05-03T14:48:30.758Z,26.30
2019-05-03T14:51:05.500Z,26.69
2019-05-03T14:53:38.320Z,27.44
2019-05-03T14:56:19.598Z,26.30
2019-05-03T14:59:09.722Z,26.67
2019-05-03T15:02:05.283Z,25.99
2019-05-03T15:04:38.655Z,26.06
2019-05-03T15:07:11.568Z,26.55
2019-05-03T15:09:45.785Z,27.00
2019-05-03T15:12:19.006Z,27.20
2019-05-03T15:14:51.999Z,27.08
2019-05-03T15:17:24.883Z,27.39
2019-05-03T15:19:58.335Z,27.57
2019-05-03T15:22:31.239Z,27.23
2019-05-03T15:25:05.049Z,27.61
2019-05-03T15:27:38.010Z,27.76
2019-05-03T15:30:12.162Z,27.97
2019-05-03T15:32:56.636Z,27.98
2019-05-03T15:35:20.357Z,28.42
2019-05-03T15:37:55.618Z,28.37
2019-05-03T15:40:28.286Z,28.33
2019-05-03T15:43:12.354Z,28.39
2019-05-03T15:46:07.159Z,28.44
2019-05-03T15:48:49.319Z,28.34
2019-05-03T15:51:22.248Z,28.14
2019-05-03T15:53:55.310Z,28.51
2019-05-03T15:56:28.263Z,28.35
2019-05-03T15:59:01.216Z,28.45
2019-05-03T16:01:35.339Z,29.11
2019-05-03T16:04:08.573Z,28.73
2019-05-03T16:06:41.519Z,29.06
2019-05-03T16:09:15.248Z,29.26
2019-05-03T16:11:48.285Z,28.40
2019-05-03T16:14:21.136Z,28.53
2019-05-03T16:16:54.730Z,28.89
2019-05-03T16:19:27.852Z,29.12
2019-05-03T16:22:00.859Z,30.76
2019-05-03T16:24:35.501Z,30.34
2019-05-03T16:27:27.511Z,29.81
2019-05-03T16:30:00.832Z,29.92
2019-05-03T16:32:36.575Z,30.26
2019-05-03T16:35:09.665Z,30.57
2019-05-03T16:37:45.186Z,30.80
2019-05-03T16:40:18.165Z,30.20
2019-05-03T16:42:51.007Z,29.87
2019-05-03T16:45:25.661Z,30.55
2019-05-03T16:47:58.701Z,30.68
2019-05-03T16:50:34.542Z,31.02
2019-05-03T16:53:08.192Z,30.55
2019-05-03T16:55:41.232Z,30.36
2019-05-03T16:58:14.914Z,31.21
2019-05-03T17:00:48.651Z,31.41
2019-05-03T17:03:38.214Z,30.96
2019-05-03T17:06:20.738Z,30.86
2019-05-03T17:09:11.384Z,31.06
2019-05-03T17:11:56.493Z,31.20
2019-05-03T17:14:29.355Z,30.72
2019-05-03T17:17:02.295Z,30.42
2019-05-03T17:19:36.343Z,30.88
2019-05-03T17:22:09.402Z,31.62
2019-05-03T17:24:44.344Z,31.08
2019-05-03T17:27:16.917Z,31.46
2019-05-03T17:29:49.866Z,31.79
2019-05-03T17:32:24.559Z,31.86
2019-05-03T17:34:57.601Z,32.25
2019-05-03T17:37:30.555Z,32.17
2019-05-03T17:40:21.343Z,32.26
2019-05-03T17:42:59.334Z,32.53
2019-05-03T17:45:37.971Z,32.46
2019-05-03T17:48:11.194Z,32.72
2019-05-03T17:50:45.534Z,32.72
2019-05-03T17:53:45.004Z,32.90
2019-05-03T17:56:39.602Z,33.22
2019-05-03T17:59:35.061Z,33.53
2019-05-03T18:02:26.733Z,33.64
2019-05-03T18:05:18.448Z,34.15
2019-05-03T18:08:19.040Z,34.15
2019-05-03T18:10:58.181Z,34.54
2019-05-03T18:13:32.650Z,34.70
2019-05-03T18:16:05.749Z,35.17
2019-05-03T18:18:38.741Z,35.22
2019-05-03T18:21:11.639Z,35.35
2019-05-03T18:23:45.562Z,35.55
2019-05-03T18:26:18.463Z,35.47
2019-05-03T18:28:51.411Z,35.91
2019-05-03T18:31:25.008Z,36.17
2019-05-03T18:33:58.132Z,36.29
2019-05-03T18:36:32.346Z,36.78
2019-05-03T18:39:08.354Z,36.77
2019-05-03T18:41:41.514Z,37.04
2019-05-03T18:44:23.222Z,37.28
2019-05-03T18:46:58.695Z,37.32
2019-05-03T18:49:32.620Z,37.60
2019-05-03T18:52:05.689Z,37.64
2019-05-03T18:54:38.512Z,37.87
2019-05-03T18:57:11.432Z,38.02
2019-05-03T18:59:44.981Z,38.33
2019-05-03T19:02:18.128Z,38.36
2019-05-03T19:04:54.641Z,38.84
2019-05-03T19:07:45.297Z,39.07
2019-05-03T19:10:35.301Z,39.14
2019-05-03T19:13:15.949Z,39.34
2019-05-03T19:15:48.951Z,39.39
2019-05-03T19:18:35.103Z,39.86
2019-05-03T19:21:07.660Z,39.62
2019-05-03T19:23:40.679Z,39.56
2019-05-03T19:26:14.486Z,39.63
2019-05-03T19:28:47.492Z,39.37
2019-05-03T19:31:20.527Z,39.24
2019-05-03T19:33:55.053Z,39.02
2019-05-03T19:36:28.149Z,39.22
2019-05-03T19:39:01.041Z,39.78
2019-05-03T19:41:35.503Z,40.27
2019-05-03T19:44:08.497Z,40.53
2019-05-03T19:46:44.368Z,40.69
2019-05-03T19:49:17.116Z,40.95
2019-05-03T19:51:50.109Z,41.22
2019-05-03T19:54:23.147Z,41.98
2019-05-03T19:56:56.044Z,42.43
2019-05-03T19:59:46.551Z,43.05
2019-05-03T20:02:35.187Z,43.38
2019-05-03T20:05:25.627Z,43.14
2019-05-03T20:08:20.325Z,43.09
2019-05-03T20:11:11.992Z,42.98
2019-05-03T20:13:45.380Z,43.07
2019-05-03T20:16:18.442Z,43.67
2019-05-03T20:18:51.434Z,44.20
2019-05-03T20:21:25.264Z,44.16
2019-05-03T20:23:58.228Z,44.16
2019-05-03T20:26:34.598Z,44.03
2019-05-03T20:29:07.688Z,44.26
2019-05-03T20:31:41.799Z,44.33
2019-05-03T20:34:15.797Z,44.45
2019-05-03T20:36:49.071Z,44.56
2019-05-03T20:39:21.955Z,44.62
2019-05-03T20:41:55.138Z,45.43
2019-05-03T20:44:35.347Z,46.00
2019-05-03T20:47:19.755Z,46.29
2019-05-03T20:50:15.544Z,46.36
2019-05-03T20:52:48.773Z,45.62
2019-05-03T20:55:21.770Z,45.71
2019-05-03T20:57:55.003Z,46.13
2019-05-03T21:00:28.233Z,46.09
2019-05-03T21:03:01.240Z,46.21
2019-05-03T21:05:35.397Z,46.64
2019-05-03T21:08:08.925Z,46.57
2019-05-03T21:10:44.566Z,46.85
2019-05-03T21:13:17.656Z,47.22
2019-05-03T21:16:02.064Z,47.40
2019-05-03T21:18:44.277Z,46.70
2019-05-03T21:21:29.785Z,46.62
2019-05-03T21:24:08.411Z,46.71
2019-05-03T21:26:41.307Z,46.83
2019-05-03T21:29:15.200Z,46.84
2019-05-03T21:31:48.230Z,46.83
2019-05-03T21:34:21.036Z,47.08
2019-05-03T21:36:54.513Z,47.15
2019-05-03T21:39:27.397Z,46.86
2019-05-03T21:42:00.321Z,47.21
2019-05-03T21:44:34.800Z,47.55
2019-05-03T21:47:29.253Z,47.97
2019-05-03T21:50:04.317Z,48.33
2019-05-03T21:52:37.280Z,48.67
2019-05-03T21:55:10.194Z,48.72
2019-05-03T21:57:44.985Z,49.09
2019-05-03T22:00:19.323Z,48.75
2019-05-03T22:02:54.683Z,48.10
2019-05-03T22:05:28.288Z,48.27
2019-05-03T22:08:01.281Z,48.49
2019-05-03T22:10:34.624Z,48.47
2019-05-03T22:13:07.796Z,48.64
2019-05-03T22:15:47.809Z,48.79
2019-05-03T22:18:25.366Z,48.54
2019-05-03T22:21:05.434Z,49.10
2019-05-03T22:24:12.148Z,49.76
2019-05-03T22:27:02.155Z,49.55
2019-05-03T22:29:35.650Z,49.28
2019-05-03T22:32:08.824Z,49.05
2019-05-03T22:34:41.620Z,49.14
2019-05-03T22:37:16.671Z,49.19
2019-05-03T22:39:49.052Z,49.36
2019-05-03T22:42:21.917Z,49.47
2019-05-03T22:44:55.311Z,49.62
2019-05-03T22:47:28.308Z,49.71
2019-05-03T22:50:01.364Z,49.76
2019-05-03T22:52:35.053Z,49.96
2019-05-03T22:55:08.488Z,50.16
2019-05-03T22:57:41.267Z,50.36
2019-05-03T23:00:15.310Z,50.49
2019-05-03T23:02:49.703Z,50.28
2019-05-03T23:05:22.602Z,49.97
2019-05-03T23:07:55.542Z,49.94
2019-05-03T23:10:28.601Z,49.94
2019-05-03T23:13:01.416Z,50.24
2019-05-03T23:15:34.858Z,50.31
2019-05-03T23:18:08.860Z,50.30
2019-05-03T23:20:59.960Z,50.06
2019-05-03T23:23:52.133Z,49.97
2019-05-03T23:26:25.511Z,49.96
2019-05-03T23:28:58.365Z,49.92
2019-05-03T23:31:31.236Z,50.40
2019-05-03T23:34:04.979Z,50.35
2019-05-03T23:36:37.920Z,49.81
2019-05-03T23:39:10.836Z,49.49
2019-05-03T23:41:43.703Z,49.30
2019-05-03T23:44:17.747Z,49.38
2019-05-03T23:47:05.345Z,49.27
2019-05-03T23:49:38.453Z,49.66
2019-05-03T23:52:48.456Z,50.42
2019-05-03T23:55:34.655Z,50.90
2019-05-03T23:58:07.591Z,51.11
